Terminal Aerodrome Forecast
Issued by NWS Caribou, ME

Home | Current Version | Previous Version | Text Only | Print | Product List | Glossary On
Versions: 1 2 3 4 5 6 7 8 9 10 11 12 13 14 15 16 17 18 19 20 21
351
FTUS41 KCAR 102332
TAFCAR
TAF
KCAR 102332Z 1100/1124 VRB03KT P6SM -SHSN OVC030
     FM110900 32004KT P6SM SCT025 OVC030
     FM111400 33005KT P6SM BKN025
      TEMPO 1120/1124 -SHSN=

USA.gov is the U.S. government's official web portal to all federal, state and local government web resources and services.